Time;durP1;ratioP1;P1;durP2;ratioP2;P2;SDS_P1;SDS_P2;PMS_P1;PMS_P2;Temp;Humidity;BMP_temperature;BMP_pressure;BME280_temperature;BME280_humidity;BME280_pressure;Samples;Min_cycle;Max_cycle;Signal;HPM_P1;HPM_P2
2021/08/31 00:01:16;;;;;;;9.13;8.13;;;14.30;99.90;;;13.23;100.00;98108.41;4976344;28;20465;-78
2021/08/31 00:03:44;;;;;;;7.07;6.37;;;14.30;99.90;;;13.15;100.00;98092.47;4973306;28;20480;-79
2021/08/31 00:06:11;;;;;;;7.70;6.70;;;14.40;99.90;;;13.25;100.00;98106.28;4982992;28;20469;-79
2021/08/31 00:08:38;;;;;;;6.93;6.20;;;14.30;99.90;;;13.31;100.00;98105.38;4981643;28;20477;-78
2021/08/31 00:11:06;;;;;;;15.07;6.80;;;14.30;99.90;;;13.30;100.00;98109.16;4983656;28;20872;-78
2021/08/31 00:13:33;;;;;;;6.47;5.70;;;14.40;99.90;;;13.03;100.00;98066.13;4960258;28;20972;-78
2021/08/31 00:16:02;;;;;;;5.47;4.97;;;14.30;99.90;;;13.23;100.00;98113.00;4983446;28;20504;-78
2021/08/31 00:18:30;;;;;;;4.83;4.43;;;14.40;99.90;;;13.20;100.00;98108.88;4976188;28;20457;-78
2021/08/31 00:20:57;;;;;;;5.87;5.07;;;14.30;99.90;;;13.22;100.00;98117.59;4975644;28;20465;-78
2021/08/31 00:23:24;;;;;;;5.20;4.70;;;14.30;99.90;;;13.25;100.00;98119.03;4964118;28;20717;-78
2021/08/31 00:25:53;;;;;;;5.27;4.63;;;14.20;99.90;;;13.27;100.00;98115.03;4960116;28;20504;-79
2021/08/31 00:28:22;;;;;;;5.70;5.10;;;14.30;99.90;;;12.55;100.00;98019.00;4955576;28;20460;-78
2021/08/31 00:30:50;;;;;;;5.97;5.37;;;14.30;99.90;;;12.78;100.00;98049.16;4973917;28;20476;-79
2021/08/31 00:33:17;;;;;;;5.93;5.33;;;14.20;99.90;;;13.19;100.00;98104.50;4975064;28;20467;-79
2021/08/31 00:35:45;;;;;;;6.17;5.57;;;14.30;99.90;;;13.30;100.00;98119.16;4957718;28;20471;-79
2021/08/31 00:38:12;;;;;;;5.60;4.80;;;14.30;99.90;;;13.14;100.00;98110.59;4970299;28;20540;-79
2021/08/31 00:40:39;;;;;;;7.17;4.87;;;14.20;99.90;;;13.20;100.00;98114.28;4968129;28;20449;-79
2021/08/31 00:43:06;;;;;;;5.60;5.07;;;14.30;99.90;;;13.21;100.00;98115.94;4988556;28;20528;-79
2021/08/31 00:45:35;;;;;;;5.90;5.40;;;14.30;99.90;;;13.21;100.00;98120.56;4981705;28;20452;-79
2021/08/31 00:48:04;;;;;;;5.97;5.47;;;14.30;99.90;;;12.84;100.00;98083.50;4990349;28;20471;-78
2021/08/31 00:50:31;;;;;;;6.00;5.40;;;14.20;99.90;;;13.22;100.00;98133.88;4974565;28;20541;-78
2021/08/31 00:52:59;;;;;;;7.70;6.00;;;14.20;99.90;;;13.22;100.00;98133.88;4985051;28;20463;-78
2021/08/31 00:55:26;;;;;;;5.83;5.20;;;14.20;99.90;;;13.16;100.00;98129.38;4979579;28;20509;-77
2021/08/31 00:57:54;;;;;;;9.60;6.70;;;14.20;99.90;;;13.20;100.00;98137.91;4969173;28;20453;-78
2021/08/31 01:00:21;;;;;;;6.43;5.80;;;14.20;99.90;;;13.00;100.00;98099.13;4980481;28;20452;-77
2021/08/31 01:02:50;;;;;;;6.50;5.90;;;14.20;99.90;;;13.18;100.00;98128.06;4966927;28;20578;-78
2021/08/31 01:05:17;;;;;;;6.67;5.70;;;14.30;99.90;;;13.15;100.00;98123.13;4971873;28;20465;-80
2021/08/31 01:08:01;;;;;;;5.80;5.30;;;14.30;99.90;;;13.18;100.00;98130.78;4986836;28;20834;-78
2021/08/31 01:10:29;;;;;;;7.03;6.23;;;14.20;99.90;;;13.16;100.00;98115.81;4976655;28;20994;-79
2021/08/31 01:12:57;;;;;;;8.40;5.90;;;14.30;99.90;;;13.27;100.00;98135.91;4966492;28;20464;-79
2021/08/31 01:15:24;;;;;;;9.67;5.77;;;14.30;99.90;;;13.19;100.00;98128.91;4989446;28;20956;-79
2021/08/31 01:17:53;;;;;;;8.40;6.37;;;14.30;99.90;;;13.16;100.00;98121.25;4989318;28;20496;-79
2021/08/31 01:20:20;;;;;;;6.40;5.90;;;14.30;99.90;;;13.23;100.00;98129.28;4976381;28;20563;-78
2021/08/31 01:22:48;;;;;;;7.57;6.73;;;14.20;99.90;;;13.25;100.00;98132.59;4967825;28;20548;-79
2021/08/31 01:25:17;;;;;;;10.50;6.50;;;14.30;99.90;;;13.25;100.00;98132.59;4972030;28;20487;-78
2021/08/31 01:27:43;;;;;;;6.00;5.33;;;14.20;99.90;;;13.29;100.00;98129.19;4980203;28;20473;-79
2021/08/31 01:30:12;;;;;;;6.93;5.80;;;14.30;99.90;;;13.23;100.00;98130.09;4963721;28;20479;-79
2021/08/31 01:32:39;;;;;;;7.37;6.67;;;14.30;99.90;;;13.14;100.00;98115.22;4980086;28;20568;-79
2021/08/31 01:35:09;;;;;;;9.10;7.43;;;14.30;99.90;;;13.25;100.00;98140.72;4984021;28;20473;-79
2021/08/31 01:37:36;;;;;;;12.67;8.10;;;14.30;99.90;;;13.13;100.00;98132.56;4981108;28;20504;-79
2021/08/31 01:40:04;;;;;;;13.00;8.40;;;14.20;99.90;;;13.12;100.00;98139.03;4977120;28;20461;-78
2021/08/31 01:42:33;;;;;;;11.83;9.00;;;14.20;99.90;;;13.10;100.00;98120.28;4974449;28;20488;-79
2021/08/31 01:45:00;;;;;;;9.33;8.20;;;14.20;99.90;;;13.23;100.00;98143.66;4978124;28;20461;-79
2021/08/31 01:47:27;;;;;;;12.30;8.70;;;14.30;99.90;;;13.26;100.00;98145.09;4949493;28;20466;-79
2021/08/31 01:49:54;;;;;;;15.23;9.63;;;14.30;99.90;;;13.29;100.00;98141.91;4959062;28;20463;-79
2021/08/31 01:52:21;;;;;;;12.70;9.20;;;14.30;99.90;;;13.22;100.00;98125.75;4979100;28;20495;-79
2021/08/31 01:54:48;;;;;;;11.30;8.50;;;14.30;99.90;;;13.21;100.00;98131.41;4983356;28;20460;-79
2021/08/31 01:57:16;;;;;;;12.10;8.63;;;14.30;99.90;;;12.94;100.00;98099.22;4942128;28;20464;-78
2021/08/31 01:59:45;;;;;;;12.37;9.80;;;14.30;99.90;;;13.17;100.00;98133.75;4972694;28;20543;-79
2021/08/31 02:02:12;;;;;;;10.43;8.30;;;14.30;99.90;;;13.20;100.00;98135.19;4957802;28;20465;-79
2021/08/31 02:04:39;;;;;;;9.03;7.93;;;14.30;99.90;;;13.11;100.00;98126.50;4977834;28;20480;-79
2021/08/31 02:07:06;;;;;;;12.70;9.17;;;14.30;99.90;;;13.10;100.00;98131.13;4977320;28;20453;-78
2021/08/31 02:09:33;;;;;;;9.23;8.17;;;14.20;99.90;;;13.13;100.00;98135.28;4977490;28;20465;-78
2021/08/31 02:12:00;;;;;;;8.73;7.13;;;14.20;99.90;;;13.26;100.00;98151.34;4978624;28;20477;-78
2021/08/31 02:14:27;;;;;;;7.67;6.97;;;14.30;99.90;;;13.19;100.00;98145.19;4982913;28;20505;-79
2021/08/31 02:16:55;;;;;;;8.83;7.10;;;14.20;99.90;;;13.16;100.00;98142.94;4982193;28;20469;-79
2021/08/31 02:19:22;;;;;;;7.73;7.03;;;14.20;99.90;;;13.06;100.00;98139.94;4961484;28;20533;-78
2021/08/31 02:21:49;;;;;;;7.57;6.67;;;14.10;99.90;;;12.99;100.00;98119.16;4973898;28;20501;-78
2021/08/31 02:24:16;;;;;;;9.17;8.27;;;14.10;99.90;;;12.87;100.00;98118.28;4980682;28;20806;-79
2021/08/31 02:26:46;;;;;;;10.70;7.40;;;14.10;99.90;;;12.93;100.00;98124.69;4982455;28;20472;-78
2021/08/31 02:29:14;;;;;;;15.10;12.00;;;14.00;99.90;;;12.94;100.00;98121.72;4960275;28;20452;-79
2021/08/31 02:31:41;;;;;;;16.40;11.57;;;14.00;99.90;;;12.88;100.00;98126.16;4971786;28;20503;-78
2021/08/31 02:34:10;;;;;;;17.23;11.17;;;14.00;99.90;;;13.01;100.00;98121.63;4957948;28;20842;-78
2021/08/31 02:36:37;;;;;;;15.63;10.90;;;14.00;99.90;;;12.57;100.00;98064.84;4975905;28;20889;-78
2021/08/31 02:39:05;;;;;;;12.90;11.37;;;14.00;99.90;;;12.91;100.00;98122.19;4977305;28;20457;-79
2021/08/31 02:41:32;;;;;;;10.00;8.97;;;14.00;99.90;;;12.93;100.00;98120.06;4988307;28;20459;-78
2021/08/31 02:43:59;;;;;;;9.20;7.23;;;14.00;99.90;;;12.94;100.00;98124.44;4974667;28;20600;-78
2021/08/31 02:46:27;;;;;;;8.17;7.37;;;14.00;99.90;;;12.96;100.00;98130.44;4981378;28;20475;-78
2021/08/31 02:48:54;;;;;;;8.40;7.53;;;14.00;99.90;;;13.03;100.00;98136.63;4959100;28;20574;-78
2021/08/31 02:51:25;;;;;;;9.47;8.23;;;14.10;99.90;;;12.96;100.00;98129.63;4977912;28;20908;-79
2021/08/31 02:53:54;;;;;;;8.60;7.80;;;14.10;99.90;;;12.96;100.00;98152.16;4944022;28;20457;-78
2021/08/31 02:56:21;;;;;;;13.43;9.63;;;14.00;99.90;;;13.00;100.00;98150.66;4980451;28;20757;-78
2021/08/31 02:58:48;;;;;;;10.50;8.40;;;14.10;99.90;;;12.96;100.00;98146.72;4978201;28;20473;-78
2021/08/31 03:01:33;;;;;;;9.40;8.40;;;14.10;99.90;;;13.01;100.00;98162.31;4976297;28;20554;-78
2021/08/31 03:04:03;;;;;;;8.37;7.63;;;14.10;99.90;;;13.06;100.00;98150.78;4973124;28;20541;-77
2021/08/31 03:06:33;;;;;;;9.30;7.30;;;14.10;99.90;;;12.98;100.00;98160.91;4977745;28;20560;-78
2021/08/31 03:09:00;;;;;;;8.30;7.50;;;14.10;99.90;;;12.49;100.00;98098.50;4959307;28;20479;-78
2021/08/31 03:11:28;;;;;;;10.13;7.80;;;14.10;99.90;;;13.00;100.00;98142.53;4977765;28;20546;-78
2021/08/31 03:13:56;;;;;;;7.83;7.13;;;14.10;99.90;;;13.04;100.00;98167.28;4978683;28;20511;-79
2021/08/31 03:16:23;;;;;;;7.27;6.50;;;14.10;99.90;;;13.03;100.00;98171.03;4961967;28;20488;-79
2021/08/31 03:18:50;;;;;;;7.17;6.57;;;14.10;99.90;;;13.02;100.00;98167.53;4973941;28;20532;-78
2021/08/31 03:21:17;;;;;;;7.80;7.10;;;14.10;99.90;;;13.07;100.00;98171.44;4979064;28;20509;-78
2021/08/31 03:23:45;;;;;;;7.50;6.80;;;14.00;99.90;;;13.02;100.00;98161.25;4982857;28;20464;-79
2021/08/31 03:26:12;;;;;;;8.00;7.20;;;14.10;99.90;;;13.01;100.00;98160.44;4978039;28;20564;-78
2021/08/31 03:28:39;;;;;;;9.67;7.80;;;14.20;99.90;;;13.13;100.00;98173.25;4978256;28;21145;-79
2021/08/31 03:31:06;;;;;;;8.27;7.47;;;14.20;99.90;;;13.16;100.00;98178.22;4982277;28;20965;-79
2021/08/31 03:33:33;;;;;;;10.33;9.13;;;14.20;99.90;;;13.22;100.00;98177.28;4983347;28;20536;-79
2021/08/31 03:36:00;;;;;;;8.47;7.73;;;14.20;99.90;;;13.03;100.00;98157.47;4983175;28;20470;-79
2021/08/31 03:38:27;;;;;;;9.00;7.57;;;14.20;99.90;;;13.17;100.00;98179.84;4982470;28;20473;-78
2021/08/31 03:40:55;;;;;;;8.80;7.90;;;14.30;99.90;;;13.21;100.00;98193.81;4990024;28;20437;-78
2021/08/31 03:43:22;;;;;;;8.57;7.33;;;14.20;99.90;;;13.17;100.00;98188.81;4992104;28;20481;-79
2021/08/31 03:45:49;;;;;;;7.97;7.27;;;14.20;99.90;;;13.04;100.00;98170.84;4989088;28;20549;-79
2021/08/31 03:48:16;;;;;;;8.60;7.80;;;14.20;99.90;;;13.18;100.00;98186.94;4984709;28;20536;-79
2021/08/31 03:50:43;;;;;;;8.40;7.60;;;14.20;99.90;;;13.09;100.00;98183.72;4981461;28;20508;-78
2021/08/31 03:53:10;;;;;;;7.27;6.33;;;14.20;99.90;;;12.97;100.00;98171.97;4985912;28;20489;-78
2021/08/31 03:55:37;;;;;;;8.83;7.57;;;14.10;99.90;;;12.90;100.00;98169.34;4985996;28;20479;-78
2021/08/31 03:58:07;;;;;;;9.97;9.00;;;14.10;99.90;;;13.08;100.00;98186.63;4980904;28;20469;-78
2021/08/31 04:00:34;;;;;;;8.97;8.07;;;14.20;99.90;;;13.07;100.00;98185.00;4978782;28;20549;-78
2021/08/31 04:03:02;;;;;;;13.27;10.40;;;14.10;99.90;;;12.84;100.00;98167.53;4983482;28;20539;-78
2021/08/31 04:05:30;;;;;;;12.47;9.93;;;14.10;99.90;;;12.78;100.00;98155.72;4972346;28;20453;-77
2021/08/31 04:07:57;;;;;;;16.53;11.77;;;14.00;99.90;;;13.02;100.00;98189.22;4969865;28;20466;-78
2021/08/31 04:10:24;;;;;;;19.20;13.07;;;14.10;99.90;;;12.73;100.00;98169.09;4976439;28;20465;-78
2021/08/31 04:12:51;;;;;;;16.97;12.20;;;14.00;99.90;;;12.87;100.00;98197.72;4966566;28;20472;-78
2021/08/31 04:15:20;;;;;;;13.63;10.90;;;14.00;99.90;;;12.94;100.00;98204.97;4982611;28;20465;-78
2021/08/31 04:17:47;;;;;;;20.33;13.50;;;14.00;99.90;;;12.85;100.00;98199.03;4979125;28;20464;-78
2021/08/31 04:20:14;;;;;;;15.43;12.43;;;14.00;99.90;;;12.86;100.00;98200.69;4976230;28;20461;-78
2021/08/31 04:22:42;;;;;;;10.97;9.87;;;13.90;99.90;;;12.83;100.00;98212.78;4977582;28;20468;-78
2021/08/31 04:25:10;;;;;;;8.70;7.90;;;14.00;99.90;;;12.78;100.00;98209.94;4980261;28;20556;-78
2021/08/31 04:27:37;;;;;;;9.97;8.67;;;13.80;99.90;;;12.79;100.00;98214.31;4967387;28;20969;-78
2021/08/31 04:30:06;;;;;;;11.63;10.43;;;13.80;99.90;;;12.58;100.00;98200.13;4976148;28;20480;-78
2021/08/31 04:32:34;;;;;;;13.93;11.10;;;13.80;99.90;;;12.69;100.00;98220.25;4970075;28;20905;-79
2021/08/31 04:35:03;;;;;;;15.07;11.30;;;13.80;99.90;;;12.66;100.00;98218.00;4987728;28;20556;-78
2021/08/31 04:37:31;;;;;;;12.77;10.00;;;13.80;99.90;;;12.70;100.00;98235.47;4976871;28;20544;-78
2021/08/31 04:39:58;;;;;;;11.67;9.90;;;13.80;99.90;;;12.69;100.00;98228.38;4966651;28;20504;-78
2021/08/31 04:42:25;;;;;;;9.47;8.57;;;13.80;99.90;;;12.71;100.00;98220.84;4978292;28;20515;-79
2021/08/31 04:44:52;;;;;;;8.10;7.30;;;13.80;99.90;;;12.82;100.00;98237.44;4977714;28;20552;-79
2021/08/31 04:47:20;;;;;;;8.87;8.00;;;13.80;99.90;;;12.73;100.00;98228.75;4966022;28;20460;-79
2021/08/31 04:49:49;;;;;;;11.00;9.30;;;13.80;99.90;;;12.83;100.00;98241.81;4978950;28;20477;-79
2021/08/31 04:52:16;;;;;;;9.20;8.30;;;13.80;99.90;;;12.56;100.00;98190.56;4983835;28;20620;-79
2021/08/31 04:54:44;;;;;;;9.00;8.20;;;14.00;99.90;;;12.71;100.00;98218.13;4965471;28;20469;-78
2021/08/31 04:57:11;;;;;;;9.43;8.07;;;13.90;99.90;;;12.85;100.00;98226.94;4980976;28;20524;-78
2021/08/31 04:59:38;;;;;;;10.83;9.23;;;13.90;99.90;;;12.91;100.00;98241.50;4961462;28;20449;-77
2021/08/31 05:02:06;;;;;;;10.50;8.97;;;13.90;99.90;;;12.92;100.00;98243.16;4975389;28;20540;-78
2021/08/31 05:04:34;;;;;;;15.53;11.30;;;14.00;99.90;;;12.86;100.00;98230.50;4974133;28;20458;-78
2021/08/31 05:07:05;;;;;;;9.27;8.27;;;14.00;99.90;;;12.98;100.00;98239.56;4975933;28;20815;-78
2021/08/31 05:09:32;;;;;;;11.53;7.80;;;14.00;99.90;;;12.97;100.00;98229.75;4961570;28;20928;-78
2021/08/31 05:11:59;;;;;;;7.97;7.27;;;14.00;99.90;;;12.97;100.00;98240.59;4976876;28;20483;-78
2021/08/31 05:14:26;;;;;;;9.33;7.60;;;14.00;99.90;;;13.02;100.00;98254.31;4979371;28;20488;-78
2021/08/31 05:16:53;;;;;;;8.40;7.60;;;14.00;99.90;;;12.98;100.00;98244.97;4975128;28;20461;-79
2021/08/31 05:19:25;;;;;;;11.10;9.00;;;14.10;99.90;;;13.08;100.00;98273.44;4981095;28;20931;-78
2021/08/31 05:21:52;;;;;;;11.77;10.30;;;14.10;99.90;;;12.97;100.00;98246.03;4978108;28;20461;-78
2021/08/31 05:24:22;;;;;;;14.03;11.30;;;14.10;99.90;;;13.03;100.00;98253.25;4965592;28;20789;-77
2021/08/31 05:26:49;;;;;;;15.30;12.20;;;14.10;99.90;;;13.03;100.00;98264.09;4974678;28;21483;-78
2021/08/31 05:29:16;;;;;;;15.10;11.57;;;14.10;99.90;;;13.12;100.00;98271.97;4976713;28;20460;-77
2021/08/31 05:31:45;;;;;;;15.60;11.60;;;14.20;99.90;;;13.00;100.00;98272.69;4974943;28;20456;-78
2021/08/31 05:34:13;;;;;;;10.43;9.30;;;14.10;99.90;;;12.83;100.00;98239.91;4979924;28;20957;-77
2021/08/31 05:36:40;;;;;;;11.10;9.97;;;14.10;99.90;;;13.00;100.00;98255.59;4962247;28;20452;-78
2021/08/31 05:39:07;;;;;;;13.83;12.30;;;14.10;99.90;;;13.17;100.00;98289.19;4980708;28;20456;-78
2021/08/31 05:41:36;;;;;;;11.40;9.90;;;14.20;99.90;;;13.14;100.00;98283.41;4974427;28;20496;-78
2021/08/31 05:44:03;;;;;;;10.70;9.17;;;14.20;99.90;;;13.15;100.00;98279.63;4974391;28;20985;-78
2021/08/31 05:46:31;;;;;;;12.23;10.57;;;14.20;99.90;;;13.17;99.81;98291.09;4978445;28;20471;-78
2021/08/31 05:48:58;;;;;;;11.10;10.00;;;14.20;98.90;;;13.08;99.98;98276.16;4965643;28;20561;-79
2021/08/31 05:51:27;;;;;;;11.47;10.13;;;14.20;99.50;;;13.04;99.83;98262.19;4978008;28;20472;-78
2021/08/31 05:54:03;;;;;;;11.17;10.17;;;14.20;99.50;;;13.15;99.76;98290.50;4957830;28;20552;-77
2021/08/31 05:56:30;;;;;;;11.97;9.97;;;14.20;99.10;;;13.21;99.45;98300.44;4962005;28;20989;-78
2021/08/31 05:58:58;;;;;;;9.97;9.07;;;14.20;98.40;;;13.15;99.10;98295.91;4955085;28;20470;-78
2021/08/31 06:01:26;;;;;;;11.23;9.90;;;14.20;98.00;;;13.04;99.59;98295.59;4954164;28;20460;-78
2021/08/31 06:03:53;;;;;;;12.03;10.10;;;14.20;99.10;;;13.06;99.33;98292.66;4978798;28;20549;-77
2021/08/31 06:06:21;;;;;;;12.40;11.10;;;14.20;98.50;;;13.00;100.00;98296.25;4974308;28;20457;-77
2021/08/31 06:08:49;;;;;;;11.07;9.93;;;14.10;99.90;;;12.86;100.00;98265.75;4974736;28;20455;-77
2021/08/31 06:11:19;;;;;;;11.23;10.03;;;14.20;99.90;;;12.98;99.41;98269.38;4976007;28;20595;-79
2021/08/31 06:13:46;;;;;;;10.30;9.40;;;14.20;98.90;;;13.11;99.17;98295.53;4976755;28;20473;-78
2021/08/31 06:16:16;;;;;;;10.93;9.23;;;14.20;98.90;;;13.09;98.81;98296.78;4986605;28;20888;-78
2021/08/31 06:21:26;;;;;;;9.93;8.90;;;14.30;97.50;;;13.14;98.98;98296.97;4979380;28;20544;-78
2021/08/31 06:23:54;;;;;;;9.90;8.90;;;14.30;97.70;;;13.17;98.65;98288.38;4980804;28;20481;-78
2021/08/31 06:26:21;;;;;;;9.20;7.53;;;14.30;97.80;;;13.29;98.25;98319.13;4974559;28;20466;-77
2021/08/31 06:28:48;;;;;;;10.40;9.30;;;14.40;96.70;;;13.41;97.94;98310.22;4975117;28;20491;-78
2021/08/31 06:31:17;;;;;;;9.90;9.00;;;14.40;97.10;;;13.45;97.63;98308.75;4975564;28;20458;-78
2021/08/31 06:33:45;;;;;;;9.63;8.63;;;14.50;96.60;;;13.54;96.45;98293.00;4978474;28;20517;-77
2021/08/31 06:36:13;;;;;;;9.83;8.47;;;14.60;95.90;;;13.64;95.80;98295.16;4979187;28;20468;-78
2021/08/31 06:38:41;;;;;;;11.20;10.10;;;14.70;95.10;;;13.94;94.95;98321.50;4970147;28;20503;-78
2021/08/31 06:41:09;;;;;;;9.83;8.37;;;14.90;94.40;;;13.85;94.69;98300.09;4976410;28;20473;-79
2021/08/31 06:43:36;;;;;;;8.97;8.10;;;15.00;93.80;;;13.95;94.57;98323.16;4977770;28;20473;-79
2021/08/31 06:46:03;;;;;;;8.77;7.90;;;15.00;93.90;;;14.07;94.17;98304.19;4967317;28;20499;-79
2021/08/31 06:48:32;;;;;;;8.60;7.77;;;15.10;93.80;;;13.99;93.55;98299.91;4974910;28;20861;-78
2021/08/31 06:50:59;;;;;;;9.10;8.13;;;15.10;93.10;;;14.06;93.14;98299.81;4973456;28;20500;-78
2021/08/31 06:53:26;;;;;;;8.33;7.53;;;15.20;92.80;;;14.10;93.33;98315.41;4977500;28;20564;-78
2021/08/31 06:55:56;;;;;;;9.07;8.20;;;15.20;92.60;;;14.23;93.37;98319.00;4981335;28;20494;-78
2021/08/31 06:58:23;;;;;;;8.83;8.03;;;15.20;92.50;;;14.25;92.75;98308.72;4986849;28;20474;-79
2021/08/31 07:00:52;;;;;;;10.20;8.77;;;15.30;92.10;;;14.41;92.53;98337.97;4982980;28;20565;-78
2021/08/31 07:03:20;;;;;;;9.10;7.70;;;15.30;92.30;;;14.48;90.11;98290.81;4986394;28;20494;-79
2021/08/31 07:05:48;;;;;;;8.40;7.70;;;15.60;91.10;;;14.69;89.43;98320.16;4961966;28;20559;-78
2021/08/31 07:08:16;;;;;;;7.70;7.10;;;15.70;90.80;;;14.83;89.54;98331.66;4981298;28;20531;-79
2021/08/31 07:10:43;;;;;;;8.33;7.53;;;15.80;90.50;;;14.82;88.65;98315.59;4977912;28;20488;-79
2021/08/31 07:13:13;;;;;;;7.93;7.13;;;15.90;90.00;;;15.04;87.77;98342.19;4980003;28;21008;-79
2021/08/31 07:15:41;;;;;;;9.07;8.17;;;15.90;89.10;;;15.04;87.81;98328.59;4975344;28;20472;-79
2021/08/31 07:18:09;;;;;;;7.93;7.23;;;16.00;88.90;;;15.09;88.08;98334.13;4976514;28;20500;-80
2021/08/31 07:20:37;;;;;;;8.63;7.70;;;16.10;89.40;;;15.08;87.01;98332.47;4964787;28;20488;-78
2021/08/31 07:23:06;;;;;;;8.33;7.60;;;16.10;88.40;;;15.06;87.11;98340.06;4983901;28;21003;-79
2021/08/31 07:25:35;;;;;;;8.20;7.40;;;16.10;88.00;;;15.15;87.16;98346.81;4982550;28;20468;-78
2021/08/31 07:28:02;;;;;;;8.33;7.60;;;16.10;88.30;;;15.36;86.50;98356.28;4962799;28;20449;-79
2021/08/31 07:30:29;;;;;;;8.47;7.67;;;16.30;87.90;;;15.35;86.21;98354.63;4964840;28;20446;-78
2021/08/31 07:32:57;;;;;;;6.90;6.20;;;16.30;87.50;;;15.47;85.06;98349.16;4963947;28;20537;-79
2021/08/31 07:35:25;;;;;;;7.60;6.90;;;16.50;86.80;;;15.71;83.55;98354.56;4966465;28;20487;-79
2021/08/31 07:37:52;;;;;;;6.33;5.83;;;16.60;85.80;;;15.83;82.02;98360.78;4954259;28;20468;-79
2021/08/31 07:40:20;;;;;;;7.10;6.50;;;16.80;84.60;;;15.70;82.76;98361.06;4977307;28;20938;-79
2021/08/31 07:42:48;;;;;;;7.50;6.80;;;16.70;84.20;;;15.49;83.62;98338.84;4963031;28;20480;-79
2021/08/31 07:45:16;;;;;;;6.83;6.23;;;16.60;84.90;;;15.69;83.23;98348.50;4975275;28;20471;-79
2021/08/31 07:47:43;;;;;;;7.77;5.80;;;16.70;84.90;;;15.69;81.88;98364.84;4979215;28;20449;-80
2021/08/31 07:50:12;;;;;;;6.40;5.80;;;16.60;83.50;;;15.52;81.68;98332.91;4969635;28;20477;-80
2021/08/31 07:52:42;;;;;;;6.17;5.57;;;16.70;83.20;;;15.81;80.68;98345.75;4980820;28;20497;-79
2021/08/31 07:55:13;;;;;;;6.80;6.20;;;16.80;82.70;;;15.93;80.21;98364.81;4975818;28;20472;-78
2021/08/31 07:57:41;;;;;;;6.67;6.03;;;16.80;82.20;;;15.71;80.84;98373.63;4983445;28;20461;-79
2021/08/31 08:00:13;;;;;;;7.13;6.43;;;16.80;82.20;;;15.71;80.70;98368.19;4964023;28;21044;-79
2021/08/31 08:02:41;;;;;;;6.93;6.33;;;16.80;82.40;;;15.97;80.95;98371.44;4960073;28;20496;-79
2021/08/31 08:05:10;;;;;;;6.40;5.80;;;16.90;82.60;;;15.77;77.79;98350.84;4979554;28;20460;-78
2021/08/31 08:07:37;;;;;;;6.23;5.63;;;16.80;79.40;;;15.69;79.37;98382.03;4976171;28;20827;-79
2021/08/31 08:10:07;;;;;;;6.30;5.77;;;16.80;79.80;;;15.62;78.10;98385.94;4984977;28;20511;-79
2021/08/31 08:12:34;;;;;;;6.10;5.60;;;16.60;78.90;;;15.62;78.87;98377.78;4979954;28;20547;-79
2021/08/31 08:15:08;;;;;;;5.53;5.03;;;16.60;79.30;;;15.99;78.29;98381.03;4964834;28;20442;-80
2021/08/31 08:17:35;;;;;;;6.90;6.23;;;16.90;79.60;;;16.39;75.54;98384.78;4976782;28;20484;-79
2021/08/31 08:20:04;;;;;;;6.43;5.73;;;17.30;77.80;;;16.31;73.88;98377.00;4983286;28;20461;-79
2021/08/31 08:22:33;;;;;;;5.90;5.33;;;17.40;75.50;;;16.47;73.71;98380.00;4948325;28;20472;-79
2021/08/31 08:25:00;;;;;;;6.97;5.30;;;17.40;75.50;;;16.20;71.53;98383.31;4988727;28;20448;-79
2021/08/31 08:27:31;;;;;;;5.70;5.20;;;17.30;72.70;;;16.35;71.98;98388.22;4979765;28;20453;-79
2021/08/31 08:29:58;;;;;;;5.63;5.13;;;17.30;73.30;;;16.37;70.31;98372.44;4962156;28;20516;-80
2021/08/31 08:32:28;;;;;;;6.17;5.37;;;17.40;72.10;;;16.00;72.22;98360.06;4982295;28;20464;-80
2021/08/31 08:34:55;;;;;;;5.57;5.17;;;17.20;72.60;;;16.13;71.24;98381.56;4983019;28;20499;-80
2021/08/31 08:37:25;;;;;;;5.80;5.23;;;17.30;71.90;;;15.91;72.52;98386.03;4986022;28;20521;-79
2021/08/31 08:39:53;;;;;;;6.10;5.60;;;17.00;71.90;;;15.70;72.48;98382.88;4958011;28;21027;-79
2021/08/31 08:42:20;;;;;;;6.80;6.10;;;16.90;71.90;;;15.71;73.06;98400.88;4985991;28;20458;-79
2021/08/31 08:44:48;;;;;;;5.90;5.40;;;16.80;72.20;;;15.60;74.40;98407.16;4977036;28;20484;-79
2021/08/31 08:47:16;;;;;;;6.37;5.73;;;16.60;73.00;;;15.75;74.16;98403.91;4986430;28;20461;-80
2021/08/31 08:49:46;;;;;;;6.43;5.57;;;16.80;73.40;;;15.78;75.29;98398.81;4983841;28;20456;-79
2021/08/31 08:52:13;;;;;;;8.90;5.93;;;16.80;73.80;;;16.06;73.12;98402.69;4985369;28;20480;-79
2021/08/31 08:54:42;;;;;;;6.10;5.50;;;17.00;73.10;;;16.22;73.75;98403.00;4984933;28;20469;-79
2021/08/31 08:57:11;;;;;;;7.10;5.60;;;17.20;73.40;;;16.60;70.53;98401.50;4981224;28;20489;-79
2021/08/31 08:59:41;;;;;;;5.50;5.00;;;17.40;71.50;;;16.87;69.10;98398.13;4982942;28;20549;-79
2021/08/31 09:02:13;;;;;;;7.77;6.20;;;17.70;70.90;;;17.49;66.43;98399.13;4981330;28;20461;-79
2021/08/31 09:04:47;;;;;;;5.80;5.30;;;18.20;69.40;;;18.09;65.62;98388.44;4985642;28;20915;-79
2021/08/31 09:07:23;;;;;;;5.80;5.10;;;18.70;69.00;;;18.60;61.77;98370.91;4976296;28;20479;-79
2021/08/31 09:09:52;;;;;;;6.10;5.60;;;19.40;66.40;;;18.58;61.03;98375.81;4958701;28;20488;-79
2021/08/31 09:12:33;;;;;;;5.70;5.10;;;19.60;65.00;;;18.81;59.93;98344.56;4976445;28;20937;-78
2021/08/31 09:15:26;;;;;;;7.10;5.40;;;19.90;64.20;;;19.03;60.16;98394.81;4973097;28;20484;-78
2021/08/31 09:18:19;;;;;;;5.40;4.90;;;19.90;63.80;;;19.34;58.85;98404.09;4968435;28;21273;-78
2021/08/31 09:21:10;;;;;;;5.47;4.97;;;20.10;63.10;;;18.97;57.69;98405.72;4977325;28;20479;-79
2021/08/31 09:23:41;;;;;;;5.53;5.03;;;20.00;61.40;;;18.39;60.83;98387.09;4983581;28;20468;-79
2021/08/31 09:26:18;;;;;;;5.30;4.80;;;19.60;62.50;;;18.35;61.27;98375.03;4986528;28;20516;-79
2021/08/31 09:28:47;;;;;;;6.67;5.00;;;19.50;63.00;;;18.36;61.71;98414.97;4984633;28;20456;-79
2021/08/31 09:31:20;;;;;;;11.13;5.37;;;19.30;62.80;;;18.35;62.60;98416.06;4984476;28;20479;-78
2021/08/31 09:33:56;;;;;;;6.10;5.03;;;19.30;63.50;;;17.83;63.83;98426.38;4981314;28;20567;-78
2021/08/31 09:36:28;;;;;;;5.80;4.80;;;19.00;63.60;;;17.64;65.09;98414.06;4962237;28;20556;-79
2021/08/31 09:38:58;;;;;;;6.20;5.60;;;18.70;64.70;;;17.28;67.04;98417.09;4985646;28;20465;-79
2021/08/31 09:41:37;;;;;;;6.20;5.60;;;18.30;65.40;;;17.17;67.32;98431.69;4976860;28;20553;-79
2021/08/31 09:44:11;;;;;;;6.00;5.40;;;18.20;65.90;;;17.04;67.50;98422.75;4976411;28;20497;-79
2021/08/31 09:46:56;;;;;;;6.10;5.60;;;18.20;66.20;;;17.27;68.20;98432.66;4980610;28;20477;-79
2021/08/31 09:49:29;;;;;;;6.90;6.30;;;18.20;66.70;;;17.71;66.42;98422.91;4953976;28;20519;-79
2021/08/31 09:52:09;;;;;;;6.47;5.47;;;18.50;66.20;;;17.79;66.50;98427.94;4975250;28;20501;-79
2021/08/31 09:54:38;;;;;;;7.80;4.80;;;18.60;66.50;;;17.61;64.99;98425.50;4981806;28;20509;-81
2021/08/31 09:57:27;;;;;;;5.83;5.33;;;18.60;64.90;;;17.33;66.98;98430.00;4962400;28;20465;-78
2021/08/31 09:59:56;;;;;;;5.70;5.07;;;18.20;65.80;;;17.63;66.07;98417.88;4974679;28;20472;-79
2021/08/31 10:02:29;;;;;;;7.47;6.63;;;18.40;65.80;;;17.56;65.67;98432.56;4979795;28;20479;-79
2021/08/31 10:04:59;;;;;;;5.87;5.33;;;18.40;65.40;;;17.59;65.63;98433.13;4981854;28;20449;-79
2021/08/31 10:08:07;;;;;;;6.43;5.37;;;18.50;65.10;;;17.49;66.15;98439.28;4988813;28;20440;-79
2021/08/31 10:10:38;;;;;;;6.63;5.47;;;18.50;65.30;;;17.56;64.94;98427.09;4959717;28;20457;-79
2021/08/31 10:13:09;;;;;;;5.80;5.20;;;18.50;64.60;;;17.49;64.72;98422.88;4978796;28;20541;-79
2021/08/31 10:15:38;;;;;;;5.77;5.27;;;18.50;64.40;;;17.49;64.98;98434.63;4976137;28;20464;-79
2021/08/31 10:18:07;;;;;;;6.33;5.53;;;18.50;64.50;;;17.72;64.90;98438.22;4983577;28;20544;-79
2021/08/31 10:20:34;;;;;;;7.97;5.73;;;18.60;64.70;;;17.87;64.41;98423.94;4984818;28;20565;-79
2021/08/31 10:23:04;;;;;;;5.80;5.20;;;18.70;64.60;;;18.21;62.27;98428.47;4975681;28;20748;-79